Clayton-le-Woods, United Kingdom
Current Conditions -  °F | °C
As of 7:20 PM on Wednesday 26 Nov 2014 (Local Time) from EGNO Reporting Station
Broken Clouds Broken Clouds  
Wind Chill: 46°   Ceiling: 2000
Heat Index: 46°   Visibility: 3mi
Dew Point: 45°   Wind: 3mph
Humidity: 93%   Direction: 70°ENE
Pressure: 29.8"   Gusts: NA
Location:  53.7°N, 2.67°W
Report Text: EGNO 261920Z 07003KT 5000 SCT014 BKN020 08/07 Q1009
Loading
Personal Weather Stations






























Interactive Weather Map New forecast layout! Learn more

10-Day Weather Forecast

Advertisements
Track Severe Weather on mobile